sensor_id;sensor_type;location;lat;lon;timestamp;P1;durP1;ratioP1;P2;durP2;ratioP2
62711;SDS011;48772;55.586;37.730;2022-09-14T00:01:51;6.95;;;4.60;;
62711;SDS011;48772;55.586;37.730;2022-09-14T00:04:18;5.70;;;3.80;;
62711;SDS011;48772;55.586;37.730;2022-09-14T00:06:44;8.00;;;4.60;;
62711;SDS011;48772;55.586;37.730;2022-09-14T00:09:12;5.90;;;4.75;;
62711;SDS011;48772;55.586;37.730;2022-09-14T00:11:38;5.70;;;5.15;;
62711;SDS011;48772;55.586;37.730;2022-09-14T00:14:05;6.65;;;5.10;;
62711;SDS011;48772;55.586;37.730;2022-09-14T00:16:32;6.38;;;5.22;;
62711;SDS011;48772;55.586;37.730;2022-09-14T00:18:59;7.82;;;4.38;;
62711;SDS011;48772;55.586;37.730;2022-09-14T00:21:25;5.07;;;4.53;;
62711;SDS011;48772;55.586;37.730;2022-09-14T00:23:51;6.00;;;5.03;;
62711;SDS011;48772;55.586;37.730;2022-09-14T00:26:18;5.35;;;4.88;;
62711;SDS011;48772;55.586;37.730;2022-09-14T00:28:45;8.52;;;4.55;;
62711;SDS011;48772;55.586;37.730;2022-09-14T00:31:12;5.90;;;5.28;;
62711;SDS011;48772;55.586;37.730;2022-09-14T00:33:39;5.43;;;4.95;;
62711;SDS011;48772;55.586;37.730;2022-09-14T00:36:16;8.05;;;5.30;;
62711;SDS011;48772;55.586;37.730;2022-09-14T00:38:41;11.68;;;8.48;;
62711;SDS011;48772;55.586;37.730;2022-09-14T00:41:09;5.90;;;5.38;;
62711;SDS011;48772;55.586;37.730;2022-09-14T00:46:20;6.40;;;5.80;;
62711;SDS011;48772;55.586;37.730;2022-09-14T00:48:46;7.63;;;6.10;;
62711;SDS011;48772;55.586;37.730;2022-09-14T00:51:11;6.90;;;6.20;;
62711;SDS011;48772;55.586;37.730;2022-09-14T00:53:38;9.27;;;6.75;;
62711;SDS011;48772;55.586;37.730;2022-09-14T00:56:03;9.90;;;6.32;;
62711;SDS011;48772;55.586;37.730;2022-09-14T00:58:29;7.80;;;5.80;;
62711;SDS011;48772;55.586;37.730;2022-09-14T01:00:55;10.15;;;6.53;;
62711;SDS011;48772;55.586;37.730;2022-09-14T01:03:21;8.80;;;6.45;;
62711;SDS011;48772;55.586;37.730;2022-09-14T01:08:24;6.95;;;5.40;;
62711;SDS011;48772;55.586;37.730;2022-09-14T01:13:29;6.72;;;6.05;;
62711;SDS011;48772;55.586;37.730;2022-09-14T01:21:09;6.97;;;5.93;;
62711;SDS011;48772;55.586;37.730;2022-09-14T01:23:38;6.97;;;5.40;;
62711;SDS011;48772;55.586;37.730;2022-09-14T01:28:42;5.70;;;5.13;;
62711;SDS011;48772;55.586;37.730;2022-09-14T01:31:12;7.78;;;5.68;;
62711;SDS011;48772;55.586;37.730;2022-09-14T01:33:48;6.40;;;5.75;;
62711;SDS011;48772;55.586;37.730;2022-09-14T01:36:17;8.63;;;6.65;;
62711;SDS011;48772;55.586;37.730;2022-09-14T01:38:43;6.95;;;6.10;;
62711;SDS011;48772;55.586;37.730;2022-09-14T01:41:11;8.05;;;6.68;;
62711;SDS011;48772;55.586;37.730;2022-09-14T01:46:05;7.13;;;6.07;;
62711;SDS011;48772;55.586;37.730;2022-09-14T01:48:34;6.03;;;4.95;;
62711;SDS011;48772;55.586;37.730;2022-09-14T01:51:02;7.78;;;6.90;;
62711;SDS011;48772;55.586;37.730;2022-09-14T01:53:44;9.02;;;6.85;;
62711;SDS011;48772;55.586;37.730;2022-09-14T01:56:33;10.20;;;8.18;;
62711;SDS011;48772;55.586;37.730;2022-09-14T02:01:36;9.15;;;7.95;;
62711;SDS011;48772;55.586;37.730;2022-09-14T02:04:05;11.07;;;7.60;;
62711;SDS011;48772;55.586;37.730;2022-09-14T02:06:33;12.98;;;8.43;;
62711;SDS011;48772;55.586;37.730;2022-09-14T02:09:00;11.43;;;8.43;;
62711;SDS011;48772;55.586;37.730;2022-09-14T02:11:26;10.70;;;8.30;;
62711;SDS011;48772;55.586;37.730;2022-09-14T02:13:51;12.63;;;9.32;;
62711;SDS011;48772;55.586;37.730;2022-09-14T02:16:17;13.23;;;9.10;;
62711;SDS011;48772;55.586;37.730;2022-09-14T02:18:43;10.43;;;8.68;;
62711;SDS011;48772;55.586;37.730;2022-09-14T02:21:13;15.52;;;10.15;;
62711;SDS011;48772;55.586;37.730;2022-09-14T02:23:40;12.90;;;11.25;;
62711;SDS011;48772;55.586;37.730;2022-09-14T02:26:06;14.48;;;11.48;;
62711;SDS011;48772;55.586;37.730;2022-09-14T02:28:32;13.38;;;11.30;;
62711;SDS011;48772;55.586;37.730;2022-09-14T02:33:41;18.10;;;12.30;;
62711;SDS011;48772;55.586;37.730;2022-09-14T02:36:12;13.15;;;10.75;;
62711;SDS011;48772;55.586;37.730;2022-09-14T02:38:44;11.10;;;9.75;;
62711;SDS011;48772;55.586;37.730;2022-09-14T02:43:54;15.02;;;10.68;;
62711;SDS011;48772;55.586;37.730;2022-09-14T02:46:46;12.15;;;9.50;;
62711;SDS011;48772;55.586;37.730;2022-09-14T02:51:44;13.57;;;10.65;;
62711;SDS011;48772;55.586;37.730;2022-09-14T02:54:16;10.25;;;8.48;;
62711;SDS011;48772;55.586;37.730;2022-09-14T02:56:43;13.13;;;9.50;;
62711;SDS011;48772;55.586;37.730;2022-09-14T02:59:09;10.88;;;8.75;;
62711;SDS011;48772;55.586;37.730;2022-09-14T03:01:35;14.77;;;9.95;;
62711;SDS011;48772;55.586;37.730;2022-09-14T03:04:01;11.20;;;7.28;;
62711;SDS011;48772;55.586;37.730;2022-09-14T03:06:27;9.07;;;7.20;;
62711;SDS011;48772;55.586;37.730;2022-09-14T03:08:52;12.52;;;8.50;;
62711;SDS011;48772;55.586;37.730;2022-09-14T03:11:18;10.52;;;8.85;;
62711;SDS011;48772;55.586;37.730;2022-09-14T03:13:44;9.35;;;6.90;;
62711;SDS011;48772;55.586;37.730;2022-09-14T03:16:12;9.38;;;8.00;;
62711;SDS011;48772;55.586;37.730;2022-09-14T03:18:38;8.38;;;7.07;;
62711;SDS011;48772;55.586;37.730;2022-09-14T03:21:05;11.45;;;7.65;;
62711;SDS011;48772;55.586;37.730;2022-09-14T03:23:34;9.52;;;7.38;;
62711;SDS011;48772;55.586;37.730;2022-09-14T03:25:59;9.00;;;6.80;;
62711;SDS011;48772;55.586;37.730;2022-09-14T03:28:25;9.32;;;8.02;;
62711;SDS011;48772;55.586;37.730;2022-09-14T03:30:51;13.07;;;8.85;;
62711;SDS011;48772;55.586;37.730;2022-09-14T03:33:17;10.30;;;7.28;;
62711;SDS011;48772;55.586;37.730;2022-09-14T03:35:42;12.00;;;9.20;;
62711;SDS011;48772;55.586;37.730;2022-09-14T03:38:08;11.02;;;7.78;;
62711;SDS011;48772;55.586;37.730;2022-09-14T03:40:33;9.55;;;8.40;;
62711;SDS011;48772;55.586;37.730;2022-09-14T03:42:59;9.65;;;7.38;;
62711;SDS011;48772;55.586;37.730;2022-09-14T06:03:33;10.48;;;8.00;;
62711;SDS011;48772;55.586;37.730;2022-09-14T06:05:59;9.88;;;8.07;;
62711;SDS011;48772;55.586;37.730;2022-09-14T06:08:25;9.40;;;8.07;;
62711;SDS011;48772;55.586;37.730;2022-09-14T06:10:50;9.25;;;7.38;;
62711;SDS011;48772;55.586;37.730;2022-09-14T06:13:16;7.60;;;6.82;;
62711;SDS011;48772;55.586;37.730;2022-09-14T06:15:42;7.40;;;6.53;;
62711;SDS011;48772;55.586;37.730;2022-09-14T06:18:08;7.07;;;6.05;;
62711;SDS011;48772;55.586;37.730;2022-09-14T06:20:33;8.65;;;7.43;;
62711;SDS011;48772;55.586;37.730;2022-09-14T06:22:59;8.88;;;6.80;;
62711;SDS011;48772;55.586;37.730;2022-09-14T06:25:25;7.35;;;6.47;;
62711;SDS011;48772;55.586;37.730;2022-09-14T06:27:55;6.50;;;5.75;;
62711;SDS011;48772;55.586;37.730;2022-09-14T06:30:21;8.05;;;6.93;;
62711;SDS011;48772;55.586;37.730;2022-09-14T06:32:46;8.60;;;7.10;;
62711;SDS011;48772;55.586;37.730;2022-09-14T06:35:12;7.38;;;6.28;;
62711;SDS011;48772;55.586;37.730;2022-09-14T06:37:37;7.65;;;6.95;;
62711;SDS011;48772;55.586;37.730;2022-09-14T06:40:03;7.90;;;6.45;;
62711;SDS011;48772;55.586;37.730;2022-09-14T06:42:29;7.40;;;6.70;;
62711;SDS011;48772;55.586;37.730;2022-09-14T06:44:55;8.95;;;7.25;;
62711;SDS011;48772;55.586;37.730;2022-09-14T06:47:21;8.13;;;6.82;;
62711;SDS011;48772;55.586;37.730;2022-09-14T06:49:48;9.23;;;8.20;;
62711;SDS011;48772;55.586;37.730;2022-09-14T06:52:14;8.68;;;7.28;;
62711;SDS011;48772;55.586;37.730;2022-09-14T06:54:40;8.57;;;6.85;;
62711;SDS011;48772;55.586;37.730;2022-09-14T06:57:06;7.97;;;7.18;;
62711;SDS011;48772;55.586;37.730;2022-09-14T06:59:31;11.63;;;8.00;;
62711;SDS011;48772;55.586;37.730;2022-09-14T07:01:57;9.82;;;8.32;;
62711;SDS011;48772;55.586;37.730;2022-09-14T07:04:23;11.73;;;8.88;;
62711;SDS011;48772;55.586;37.730;2022-09-14T07:06:49;11.57;;;8.77;;
62711;SDS011;48772;55.586;37.730;2022-09-14T07:09:16;11.27;;;9.02;;
62711;SDS011;48772;55.586;37.730;2022-09-14T07:11:49;11.85;;;9.75;;
62711;SDS011;48772;55.586;37.730;2022-09-14T07:14:15;11.60;;;7.68;;
62711;SDS011;48772;55.586;37.730;2022-09-14T07:16:41;13.63;;;9.40;;
62711;SDS011;48772;55.586;37.730;2022-09-14T07:19:09;10.77;;;9.20;;
62711;SDS011;48772;55.586;37.730;2022-09-14T07:21:35;11.73;;;9.55;;
62711;SDS011;48772;55.586;37.730;2022-09-14T07:24:01;13.68;;;10.18;;
62711;SDS011;48772;55.586;37.730;2022-09-14T07:26:28;11.30;;;8.98;;
62711;SDS011;48772;55.586;37.730;2022-09-14T07:28:56;12.77;;;8.90;;
62711;SDS011;48772;55.586;37.730;2022-09-14T07:31:26;12.23;;;9.48;;
62711;SDS011;48772;55.586;37.730;2022-09-14T07:33:54;12.05;;;9.25;;
62711;SDS011;48772;55.586;37.730;2022-09-14T07:36:21;10.05;;;8.40;;
62711;SDS011;48772;55.586;37.730;2022-09-14T07:38:47;11.63;;;9.43;;
62711;SDS011;48772;55.586;37.730;2022-09-14T07:41:13;12.35;;;8.75;;
62711;SDS011;48772;55.586;37.730;2022-09-14T07:43:39;8.95;;;6.60;;
62711;SDS011;48772;55.586;37.730;2022-09-14T07:46:05;13.23;;;10.07;;
62711;SDS011;48772;55.586;37.730;2022-09-14T07:48:32;15.60;;;8.52;;
62711;SDS011;48772;55.586;37.730;2022-09-14T07:51:02;10.68;;;7.82;;
62711;SDS011;48772;55.586;37.730;2022-09-14T07:53:29;9.90;;;8.25;;
62711;SDS011;48772;55.586;37.730;2022-09-14T07:55:59;11.00;;;7.68;;
62711;SDS011;48772;55.586;37.730;2022-09-14T07:58:25;10.15;;;6.65;;
62711;SDS011;48772;55.586;37.730;2022-09-14T08:00:51;9.40;;;6.15;;
62711;SDS011;48772;55.586;37.730;2022-09-14T08:03:17;8.13;;;6.30;;
62711;SDS011;48772;55.586;37.730;2022-09-14T08:05:43;6.80;;;6.07;;
62711;SDS011;48772;55.586;37.730;2022-09-14T08:08:09;6.90;;;6.20;;
62711;SDS011;48772;55.586;37.730;2022-09-14T08:10:34;11.30;;;7.72;;
62711;SDS011;48772;55.586;37.730;2022-09-14T08:13:00;11.50;;;7.88;;
62711;SDS011;48772;55.586;37.730;2022-09-14T08:15:26;9.18;;;6.28;;
62711;SDS011;48772;55.586;37.730;2022-09-14T08:17:52;7.88;;;6.53;;
62711;SDS011;48772;55.586;37.730;2022-09-14T08:20:18;6.65;;;6.00;;
62711;SDS011;48772;55.586;37.730;2022-09-14T08:22:44;10.27;;;6.22;;
62711;SDS011;48772;55.586;37.730;2022-09-14T08:25:11;8.32;;;6.00;;
62711;SDS011;48772;55.586;37.730;2022-09-14T08:27:37;6.85;;;4.80;;
62711;SDS011;48772;55.586;37.730;2022-09-14T08:30:04;6.10;;;5.47;;
62711;SDS011;48772;55.586;37.730;2022-09-14T08:32:30;8.63;;;6.10;;
62711;SDS011;48772;55.586;37.730;2022-09-14T08:34:56;7.07;;;5.75;;
62711;SDS011;48772;55.586;37.730;2022-09-14T08:37:22;6.47;;;5.78;;
62711;SDS011;48772;55.586;37.730;2022-09-14T08:39:49;7.43;;;5.65;;
62711;SDS011;48772;55.586;37.730;2022-09-14T08:42:18;7.47;;;6.10;;
62711;SDS011;48772;55.586;37.730;2022-09-14T08:44:49;7.45;;;5.50;;
62711;SDS011;48772;55.586;37.730;2022-09-14T08:47:24;7.00;;;5.57;;
62711;SDS011;48772;55.586;37.730;2022-09-14T08:52:50;7.03;;;5.47;;
62711;SDS011;48772;55.586;37.730;2022-09-14T09:00:16;8.73;;;5.50;;
62711;SDS011;48772;55.586;37.730;2022-09-14T09:02:46;6.32;;;5.38;;
62711;SDS011;48772;55.586;37.730;2022-09-14T09:06:17;6.35;;;5.68;;
62711;SDS011;48772;55.586;37.730;2022-09-14T09:10:41;6.82;;;5.20;;
62711;SDS011;48772;55.586;37.730;2022-09-14T09:13:09;6.38;;;5.60;;
62711;SDS011;48772;55.586;37.730;2022-09-14T09:15:43;8.55;;;5.25;;
62711;SDS011;48772;55.586;37.730;2022-09-14T09:18:18;5.95;;;5.30;;
62711;SDS011;48772;55.586;37.730;2022-09-14T09:20:46;7.97;;;5.72;;
62711;SDS011;48772;55.586;37.730;2022-09-14T09:23:17;6.57;;;5.88;;
62711;SDS011;48772;55.586;37.730;2022-09-14T09:28:12;6.05;;;5.28;;
62711;SDS011;48772;55.586;37.730;2022-09-14T09:30:39;5.53;;;4.80;;
62711;SDS011;48772;55.586;37.730;2022-09-14T09:33:16;6.63;;;4.72;;
62711;SDS011;48772;55.586;37.730;2022-09-14T09:36:19;7.05;;;5.38;;
62711;SDS011;48772;55.586;37.730;2022-09-14T09:38:45;8.32;;;5.70;;
62711;SDS011;48772;55.586;37.730;2022-09-14T09:41:16;10.55;;;6.93;;
62711;SDS011;48772;55.586;37.730;2022-09-14T09:44:03;10.27;;;6.68;;
62711;SDS011;48772;55.586;37.730;2022-09-14T09:46:32;11.00;;;6.75;;
62711;SDS011;48772;55.586;37.730;2022-09-14T09:49:04;10.68;;;6.30;;
62711;SDS011;48772;55.586;37.730;2022-09-14T09:51:39;6.55;;;5.45;;
62711;SDS011;48772;55.586;37.730;2022-09-14T09:56:39;5.45;;;4.18;;
62711;SDS011;48772;55.586;37.730;2022-09-14T09:59:20;4.97;;;4.25;;
62711;SDS011;48772;55.586;37.730;2022-09-14T10:01:46;5.70;;;4.68;;
62711;SDS011;48772;55.586;37.730;2022-09-14T10:04:17;6.60;;;4.72;;
62711;SDS011;48772;55.586;37.730;2022-09-14T10:06:48;5.88;;;4.22;;
62711;SDS011;48772;55.586;37.730;2022-09-14T10:09:15;4.30;;;3.63;;
62711;SDS011;48772;55.586;37.730;2022-09-14T10:11:42;8.75;;;4.47;;
62711;SDS011;48772;55.586;37.730;2022-09-14T10:14:27;3.70;;;3.40;;
62711;SDS011;48772;55.586;37.730;2022-09-14T10:16:53;6.18;;;3.83;;
62711;SDS011;48772;55.586;37.730;2022-09-14T10:19:28;4.03;;;3.50;;
62711;SDS011;48772;55.586;37.730;2022-09-14T10:22:13;4.82;;;3.70;;
62711;SDS011;48772;55.586;37.730;2022-09-14T10:24:59;6.28;;;4.03;;
62711;SDS011;48772;55.586;37.730;2022-09-14T10:27:37;6.60;;;3.58;;
62711;SDS011;48772;55.586;37.730;2022-09-14T10:30:50;6.32;;;4.47;;
62711;SDS011;48772;55.586;37.730;2022-09-14T10:33:04;4.38;;;3.60;;
62711;SDS011;48772;55.586;37.730;2022-09-14T10:38:19;5.63;;;3.95;;
62711;SDS011;48772;55.586;37.730;2022-09-14T10:40:45;4.75;;;3.88;;
62711;SDS011;48772;55.586;37.730;2022-09-14T10:43:13;2.78;;;2.45;;
62711;SDS011;48772;55.586;37.730;2022-09-14T10:45:46;4.78;;;3.40;;
62711;SDS011;48772;55.586;37.730;2022-09-14T10:53:48;3.67;;;3.20;;
62711;SDS011;48772;55.586;37.730;2022-09-14T11:09:22;4.32;;;3.92;;
62711;SDS011;48772;55.586;37.730;2022-09-14T11:29:33;7.60;;;4.82;;
62711;SDS011;48772;55.586;37.730;2022-09-14T11:32:14;7.20;;;4.57;;
62711;SDS011;48772;55.586;37.730;2022-09-14T11:34:49;6.60;;;4.60;;
62711;SDS011;48772;55.586;37.730;2022-09-14T11:37:23;5.03;;;4.32;;
62711;SDS011;48772;55.586;37.730;2022-09-14T11:39:57;7.18;;;5.20;;
62711;SDS011;48772;55.586;37.730;2022-09-14T11:42:29;7.78;;;4.97;;
62711;SDS011;48772;55.586;37.730;2022-09-14T11:45:04;8.07;;;5.55;;
62711;SDS011;48772;55.586;37.730;2022-09-14T11:47:36;9.77;;;4.80;;
62711;SDS011;48772;55.586;37.730;2022-09-14T11:50:27;8.82;;;4.78;;
62711;SDS011;48772;55.586;37.730;2022-09-14T11:55:32;7.43;;;4.70;;
62711;SDS011;48772;55.586;37.730;2022-09-14T11:57:58;7.78;;;5.18;;
62711;SDS011;48772;55.586;37.730;2022-09-14T12:03:12;9.23;;;5.00;;
62711;SDS011;48772;55.586;37.730;2022-09-14T12:05:35;6.95;;;4.95;;
62711;SDS011;48772;55.586;37.730;2022-09-14T12:10:26;11.60;;;5.25;;
62711;SDS011;48772;55.586;37.730;2022-09-14T12:12:56;6.82;;;4.70;;
62711;SDS011;48772;55.586;37.730;2022-09-14T12:17:52;6.63;;;4.00;;
62711;SDS011;48772;55.586;37.730;2022-09-14T12:25:32;7.40;;;4.93;;
62711;SDS011;48772;55.586;37.730;2022-09-14T12:27:59;4.72;;;3.80;;
62711;SDS011;48772;55.586;37.730;2022-09-14T12:33:40;9.18;;;4.00;;
62711;SDS011;48772;55.586;37.730;2022-09-14T12:36:05;7.00;;;4.07;;
62711;SDS011;48772;55.586;37.730;2022-09-14T12:40:57;7.75;;;3.70;;
62711;SDS011;48772;55.586;37.730;2022-09-14T12:46:04;4.40;;;3.95;;
62711;SDS011;48772;55.586;37.730;2022-09-14T12:56:27;8.73;;;2.97;;
62711;SDS011;48772;55.586;37.730;2022-09-14T13:04:10;3.95;;;3.55;;
62711;SDS011;48772;55.586;37.730;2022-09-14T13:06:41;5.07;;;3.75;;
62711;SDS011;48772;55.586;37.730;2022-09-14T13:09:27;4.53;;;3.60;;
62711;SDS011;48772;55.586;37.730;2022-09-14T13:11:55;7.68;;;4.15;;
62711;SDS011;48772;55.586;37.730;2022-09-14T13:14:21;10.35;;;4.10;;
62711;SDS011;48772;55.586;37.730;2022-09-14T13:16:48;7.43;;;3.92;;
62711;SDS011;48772;55.586;37.730;2022-09-14T13:19:19;5.43;;;4.20;;
62711;SDS011;48772;55.586;37.730;2022-09-14T13:21:45;6.22;;;4.63;;
62711;SDS011;48772;55.586;37.730;2022-09-14T13:24:22;6.88;;;3.83;;
62711;SDS011;48772;55.586;37.730;2022-09-14T13:26:48;10.80;;;3.90;;
62711;SDS011;48772;55.586;37.730;2022-09-14T13:29:14;9.88;;;4.28;;
62711;SDS011;48772;55.586;37.730;2022-09-14T13:31:40;14.00;;;4.38;;
62711;SDS011;48772;55.586;37.730;2022-09-14T13:34:18;8.48;;;4.43;;
62711;SDS011;48772;55.586;37.730;2022-09-14T13:36:45;10.63;;;4.32;;
62711;SDS011;48772;55.586;37.730;2022-09-14T13:39:47;4.90;;;4.30;;
62711;SDS011;48772;55.586;37.730;2022-09-14T13:42:03;5.50;;;4.07;;
62711;SDS011;48772;55.586;37.730;2022-09-14T13:44:33;6.50;;;4.13;;
62711;SDS011;48772;55.586;37.730;2022-09-14T13:47:02;6.43;;;4.43;;
62711;SDS011;48772;55.586;37.730;2022-09-14T13:49:28;10.02;;;4.40;;
62711;SDS011;48772;55.586;37.730;2022-09-14T13:54:38;6.03;;;4.32;;
62711;SDS011;48772;55.586;37.730;2022-09-14T13:57:10;8.45;;;5.57;;
62711;SDS011;48772;55.586;37.730;2022-09-14T13:59:36;8.23;;;5.18;;
62711;SDS011;48772;55.586;37.730;2022-09-14T14:02:01;6.25;;;4.60;;
62711;SDS011;48772;55.586;37.730;2022-09-14T14:04:29;6.78;;;5.20;;
62711;SDS011;48772;55.586;37.730;2022-09-14T14:07:05;5.88;;;4.15;;
62711;SDS011;48772;55.586;37.730;2022-09-14T14:09:40;4.65;;;4.10;;
62711;SDS011;48772;55.586;37.730;2022-09-14T14:12:07;6.78;;;4.20;;
62711;SDS011;48772;55.586;37.730;2022-09-14T14:14:33;7.55;;;4.60;;
62711;SDS011;48772;55.586;37.730;2022-09-14T14:19:51;7.00;;;4.93;;
62711;SDS011;48772;55.586;37.730;2022-09-14T14:22:18;5.55;;;4.13;;
62711;SDS011;48772;55.586;37.730;2022-09-14T14:24:45;5.72;;;4.07;;
62711;SDS011;48772;55.586;37.730;2022-09-14T14:27:30;6.55;;;5.10;;
62711;SDS011;48772;55.586;37.730;2022-09-14T14:29:57;5.93;;;4.18;;
62711;SDS011;48772;55.586;37.730;2022-09-14T14:32:23;6.97;;;4.40;;
62711;SDS011;48772;55.586;37.730;2022-09-14T14:34:49;8.45;;;4.40;;
62711;SDS011;48772;55.586;37.730;2022-09-14T14:37:17;8.35;;;4.63;;
62711;SDS011;48772;55.586;37.730;2022-09-14T14:39:43;8.50;;;4.75;;
62711;SDS011;48772;55.586;37.730;2022-09-14T14:42:09;6.32;;;4.53;;
62711;SDS011;48772;55.586;37.730;2022-09-14T14:44:35;5.00;;;4.53;;
62711;SDS011;48772;55.586;37.730;2022-09-14T14:47:00;5.78;;;4.40;;
62711;SDS011;48772;55.586;37.730;2022-09-14T14:49:26;8.45;;;4.78;;
62711;SDS011;48772;55.586;37.730;2022-09-14T14:52:28;7.63;;;4.95;;
62711;SDS011;48772;55.586;37.730;2022-09-14T14:55:16;9.73;;;4.93;;
62711;SDS011;48772;55.586;37.730;2022-09-14T14:58:12;7.40;;;5.00;;
62711;SDS011;48772;55.586;37.730;2022-09-14T15:00:39;8.30;;;5.18;;
62711;SDS011;48772;55.586;37.730;2022-09-14T15:03:05;11.63;;;5.60;;
62711;SDS011;48772;55.586;37.730;2022-09-14T15:05:31;7.82;;;5.28;;
62711;SDS011;48772;55.586;37.730;2022-09-14T15:07:57;9.02;;;5.78;;
62711;SDS011;48772;55.586;37.730;2022-09-14T15:10:23;8.13;;;5.75;;
62711;SDS011;48772;55.586;37.730;2022-09-14T15:12:49;8.57;;;6.15;;
62711;SDS011;48772;55.586;37.730;2022-09-14T15:15:18;11.70;;;6.07;;
62711;SDS011;48772;55.586;37.730;2022-09-14T15:17:44;9.30;;;6.82;;
62711;SDS011;48772;55.586;37.730;2022-09-14T15:20:10;15.82;;;10.50;;
62711;SDS011;48772;55.586;37.730;2022-09-14T15:22:36;14.25;;;9.60;;
62711;SDS011;48772;55.586;37.730;2022-09-14T15:25:02;19.27;;;12.55;;
62711;SDS011;48772;55.586;37.730;2022-09-14T15:27:28;16.48;;;10.27;;
62711;SDS011;48772;55.586;37.730;2022-09-14T15:29:55;13.48;;;8.48;;
62711;SDS011;48772;55.586;37.730;2022-09-14T15:32:24;15.13;;;9.80;;
62711;SDS011;48772;55.586;37.730;2022-09-14T15:34:50;12.05;;;8.05;;
62711;SDS011;48772;55.586;37.730;2022-09-14T15:37:17;14.65;;;7.85;;
62711;SDS011;48772;55.586;37.730;2022-09-14T15:39:43;14.07;;;8.55;;
62711;SDS011;48772;55.586;37.730;2022-09-14T15:42:10;11.63;;;8.45;;
62711;SDS011;48772;55.586;37.730;2022-09-14T15:44:36;11.63;;;8.40;;
62711;SDS011;48772;55.586;37.730;2022-09-14T15:47:02;13.07;;;8.52;;
62711;SDS011;48772;55.586;37.730;2022-09-14T15:49:27;17.48;;;8.95;;
62711;SDS011;48772;55.586;37.730;2022-09-14T15:51:53;13.27;;;8.65;;
62711;SDS011;48772;55.586;37.730;2022-09-14T15:54:20;19.38;;;8.73;;
62711;SDS011;48772;55.586;37.730;2022-09-14T15:56:49;16.77;;;9.35;;
62711;SDS011;48772;55.586;37.730;2022-09-14T15:59:16;14.05;;;9.40;;
62711;SDS011;48772;55.586;37.730;2022-09-14T16:01:42;12.52;;;8.90;;
62711;SDS011;48772;55.586;37.730;2022-09-14T16:04:07;18.90;;;10.18;;
62711;SDS011;48772;55.586;37.730;2022-09-14T16:06:33;12.55;;;8.98;;
62711;SDS011;48772;55.586;37.730;2022-09-14T16:09:00;12.50;;;9.48;;
62711;SDS011;48772;55.586;37.730;2022-09-14T16:11:26;20.60;;;11.85;;
62711;SDS011;48772;55.586;37.730;2022-09-14T16:13:52;18.67;;;11.63;;
62711;SDS011;48772;55.586;37.730;2022-09-14T16:16:18;19.92;;;13.15;;
62711;SDS011;48772;55.586;37.730;2022-09-14T16:18:44;20.40;;;12.15;;
62711;SDS011;48772;55.586;37.730;2022-09-14T16:21:11;17.10;;;11.68;;
62711;SDS011;48772;55.586;37.730;2022-09-14T16:23:46;19.45;;;11.52;;
62711;SDS011;48772;55.586;37.730;2022-09-14T16:26:17;23.05;;;12.50;;
62711;SDS011;48772;55.586;37.730;2022-09-14T16:28:43;20.58;;;11.45;;
62711;SDS011;48772;55.586;37.730;2022-09-14T16:31:20;21.98;;;12.50;;
62711;SDS011;48772;55.586;37.730;2022-09-14T16:33:54;22.55;;;11.73;;
62711;SDS011;48772;55.586;37.730;2022-09-14T16:36:21;20.88;;;13.90;;
62711;SDS011;48772;55.586;37.730;2022-09-14T16:38:48;25.77;;;15.70;;
62711;SDS011;48772;55.586;37.730;2022-09-14T16:41:14;28.65;;;15.80;;
62711;SDS011;48772;55.586;37.730;2022-09-14T16:43:40;26.60;;;15.90;;
62711;SDS011;48772;55.586;37.730;2022-09-14T16:46:09;28.77;;;15.50;;
62711;SDS011;48772;55.586;37.730;2022-09-14T16:48:43;23.35;;;14.85;;
62711;SDS011;48772;55.586;37.730;2022-09-14T16:51:09;25.83;;;13.90;;
62711;SDS011;48772;55.586;37.730;2022-09-14T16:53:36;23.33;;;13.93;;
62711;SDS011;48772;55.586;37.730;2022-09-14T16:56:03;19.35;;;12.80;;
62711;SDS011;48772;55.586;37.730;2022-09-14T16:58:30;22.67;;;13.20;;
62711;SDS011;48772;55.586;37.730;2022-09-14T17:00:55;25.10;;;13.65;;
62711;SDS011;48772;55.586;37.730;2022-09-14T17:03:21;21.80;;;12.70;;
62711;SDS011;48772;55.586;37.730;2022-09-14T17:05:47;25.27;;;13.68;;
62711;SDS011;48772;55.586;37.730;2022-09-14T17:08:13;22.83;;;13.25;;
62711;SDS011;48772;55.586;37.730;2022-09-14T17:10:38;27.95;;;12.90;;
62711;SDS011;48772;55.586;37.730;2022-09-14T17:13:04;16.95;;;11.95;;
62711;SDS011;48772;55.586;37.730;2022-09-14T17:15:30;15.63;;;11.20;;
62711;SDS011;48772;55.586;37.730;2022-09-14T17:17:55;16.35;;;11.05;;
62711;SDS011;48772;55.586;37.730;2022-09-14T17:20:21;21.63;;;11.65;;
62711;SDS011;48772;55.586;37.730;2022-09-14T17:22:47;18.73;;;11.32;;
62711;SDS011;48772;55.586;37.730;2022-09-14T17:25:12;21.55;;;12.02;;
62711;SDS011;48772;55.586;37.730;2022-09-14T17:27:38;15.55;;;11.70;;
62711;SDS011;48772;55.586;37.730;2022-09-14T17:30:04;18.73;;;11.32;;
62711;SDS011;48772;55.586;37.730;2022-09-14T17:32:30;25.17;;;12.38;;
62711;SDS011;48772;55.586;37.730;2022-09-14T17:34:57;21.80;;;12.02;;
62711;SDS011;48772;55.586;37.730;2022-09-14T17:37:23;18.30;;;11.68;;
62711;SDS011;48772;55.586;37.730;2022-09-14T17:39:49;16.08;;;11.98;;
62711;SDS011;48772;55.586;37.730;2022-09-14T17:42:15;15.95;;;10.98;;
62711;SDS011;48772;55.586;37.730;2022-09-14T17:44:40;21.25;;;11.70;;
62711;SDS011;48772;55.586;37.730;2022-09-14T17:47:06;18.08;;;12.07;;
62711;SDS011;48772;55.586;37.730;2022-09-14T17:49:31;16.25;;;11.80;;
62711;SDS011;48772;55.586;37.730;2022-09-14T17:51:57;19.85;;;13.52;;
62711;SDS011;48772;55.586;37.730;2022-09-14T17:54:23;21.38;;;13.50;;
62711;SDS011;48772;55.586;37.730;2022-09-14T17:56:48;17.30;;;11.52;;
62711;SDS011;48772;55.586;37.730;2022-09-14T17:59:17;15.60;;;12.05;;
62711;SDS011;48772;55.586;37.730;2022-09-14T18:01:44;17.60;;;10.77;;
62711;SDS011;48772;55.586;37.730;2022-09-14T18:04:10;20.65;;;11.77;;
62711;SDS011;48772;55.586;37.730;2022-09-14T18:06:38;17.00;;;10.63;;
62711;SDS011;48772;55.586;37.730;2022-09-14T18:09:06;20.10;;;12.95;;
62711;SDS011;48772;55.586;37.730;2022-09-14T18:11:37;19.43;;;14.13;;
62711;SDS011;48772;55.586;37.730;2022-09-14T18:14:03;21.88;;;15.05;;
62711;SDS011;48772;55.586;37.730;2022-09-14T18:16:29;23.50;;;15.18;;
62711;SDS011;48772;55.586;37.730;2022-09-14T18:18:54;29.67;;;15.73;;
62711;SDS011;48772;55.586;37.730;2022-09-14T18:21:22;28.17;;;16.88;;
62711;SDS011;48772;55.586;37.730;2022-09-14T18:23:48;21.25;;;15.25;;
62711;SDS011;48772;55.586;37.730;2022-09-14T18:26:14;27.73;;;16.83;;
62711;SDS011;48772;55.586;37.730;2022-09-14T18:28:40;24.17;;;17.00;;
62711;SDS011;48772;55.586;37.730;2022-09-14T18:31:08;26.00;;;15.75;;
62711;SDS011;48772;55.586;37.730;2022-09-14T18:33:34;31.27;;;17.45;;
62711;SDS011;48772;55.586;37.730;2022-09-14T18:36:00;23.90;;;16.13;;
62711;SDS011;48772;55.586;37.730;2022-09-14T18:38:26;28.13;;;17.92;;
62711;SDS011;48772;55.586;37.730;2022-09-14T18:40:53;25.33;;;15.82;;
62711;SDS011;48772;55.586;37.730;2022-09-14T18:43:19;28.88;;;17.48;;
62711;SDS011;48772;55.586;37.730;2022-09-14T18:45:45;30.15;;;17.23;;
62711;SDS011;48772;55.586;37.730;2022-09-14T18:51:05;26.67;;;16.35;;
62711;SDS011;48772;55.586;37.730;2022-09-14T18:53:31;29.40;;;18.85;;
62711;SDS011;48772;55.586;37.730;2022-09-14T18:56:02;26.70;;;18.35;;
62711;SDS011;48772;55.586;37.730;2022-09-14T18:58:31;26.63;;;16.58;;
62711;SDS011;48772;55.586;37.730;2022-09-14T19:00:56;28.92;;;17.17;;